Time;durP1;ratioP1;P1;durP2;ratioP2;P2;SDS_P1;SDS_P2;PMS_P1;PMS_P2;Temp;Humidity;BMP_temperature;BMP_pressure;BME280_temperature;BME280_humidity;BME280_pressure;Samples;Min_cycle;Max_cycle;Signal;HPM_P1;HPM_P2
2023/08/18 00:01:09;;;;;;;1.90;1.00;;;22.00;1.00;;;;;;5117294;28;20773;-64
2023/08/18 00:03:37;;;;;;;2.10;1.00;;;21.90;1.00;;;;;;5116921;28;20463;-64
2023/08/18 00:06:05;;;;;;;1.30;1.00;;;21.90;1.00;;;;;;5116604;28;20433;-64
2023/08/18 00:08:32;;;;;;;1.45;1.00;;;21.80;1.00;;;;;;5109386;28;20723;-64
2023/08/18 00:11:01;;;;;;;1.50;1.10;;;21.70;1.00;;;;;;5117024;28;20915;-64
2023/08/18 00:13:28;;;;;;;1.60;1.10;;;21.60;1.00;;;;;;5118218;28;20455;-64
2023/08/18 00:15:55;;;;;;;1.67;1.00;;;21.60;1.00;;;;;;5117896;28;20779;-64
2023/08/18 00:18:22;;;;;;;1.35;0.90;;;21.60;1.00;;;;;;5109571;28;20435;-64
2023/08/18 00:20:50;;;;;;;1.33;0.93;;;21.50;1.00;;;;;;5118034;28;20420;-65
2023/08/18 00:23:17;;;;;;;1.40;0.90;;;21.50;1.00;;;;;;5117616;28;20415;-61
2023/08/18 00:25:44;;;;;;;1.50;1.00;;;21.50;1.00;;;;;;5117752;28;20432;-64
2023/08/18 00:28:14;;;;;;;2.65;0.90;;;21.60;1.00;;;;;;5117556;28;20420;-63
2023/08/18 00:30:41;;;;;;;1.25;1.00;;;21.50;1.00;;;;;;5117454;28;20424;-64
2023/08/18 00:33:08;;;;;;;1.40;0.90;;;21.50;1.00;;;;;;5117123;28;20420;-64
2023/08/18 00:35:35;;;;;;;1.90;1.00;;;21.60;1.00;;;;;;5117235;28;20507;-63
2023/08/18 00:38:02;;;;;;;2.05;0.90;;;21.60;1.00;;;;;;5116845;28;20412;-64
2023/08/18 00:40:29;;;;;;;1.00;0.80;;;21.50;1.00;;;;;;5117446;28;20862;-64
2023/08/18 00:42:57;;;;;;;1.10;0.90;;;21.50;1.00;;;;;;5117573;28;20428;-64
2023/08/18 00:45:26;;;;;;;1.90;0.90;;;21.60;1.00;;;;;;5117004;28;20424;-64
2023/08/18 00:47:53;;;;;;;1.70;0.90;;;21.50;1.00;;;;;;5116878;28;20428;-63
2023/08/18 00:50:21;;;;;;;1.63;0.90;;;21.60;1.00;;;;;;5116852;28;20480;-62
2023/08/18 00:52:56;;;;;;;1.40;0.90;;;21.60;1.00;;;;;;5116651;28;20492;-62
2023/08/18 00:55:24;;;;;;;2.50;0.90;;;21.60;1.00;;;;;;5117554;28;20460;-63
2023/08/18 00:57:51;;;;;;;1.35;0.90;;;21.60;1.00;;;;;;5116487;28;20431;-63
2023/08/18 01:00:23;;;;;;;1.50;0.90;;;21.50;1.00;;;;;;5117077;28;20734;-63
2023/08/18 01:02:51;;;;;;;2.70;1.00;;;21.50;1.00;;;;;;5116728;28;20428;-63
2023/08/18 01:05:19;;;;;;;1.70;0.90;;;21.50;1.00;;;;;;5116512;28;20471;-62
2023/08/18 01:07:46;;;;;;;1.90;0.90;;;21.50;1.00;;;;;;5116391;28;20448;-63
2023/08/18 01:10:13;;;;;;;1.23;0.90;;;21.30;1.00;;;;;;5116586;28;20420;-64
2023/08/18 01:12:50;;;;;;;2.10;1.10;;;21.30;1.00;;;;;;5117068;28;20420;-64
2023/08/18 01:15:21;;;;;;;2.65;0.98;;;21.30;1.00;;;;;;5116534;28;20423;-64
2023/08/18 01:17:52;;;;;;;1.25;0.90;;;21.30;1.00;;;;;;5116900;28;20423;-64
2023/08/18 01:20:20;;;;;;;3.25;0.93;;;21.20;1.00;;;;;;5116359;28;20424;-63
2023/08/18 01:22:56;;;;;;;1.25;1.02;;;21.30;1.00;;;;;;5116725;28;20419;-64
2023/08/18 01:25:23;;;;;;;1.52;0.90;;;21.30;1.00;;;;;;5116782;28;20436;-64
2023/08/18 01:27:51;;;;;;;2.00;0.98;;;21.30;1.00;;;;;;5116313;28;20428;-63
2023/08/18 01:30:19;;;;;;;2.20;0.95;;;21.20;1.00;;;;;;5115876;28;20424;-64
2023/08/18 01:32:52;;;;;;;1.63;0.90;;;21.20;1.00;;;;;;5116228;28;20427;-63
2023/08/18 01:35:21;;;;;;;1.80;1.00;;;21.20;1.00;;;;;;5116180;28;20918;-63
2023/08/18 01:37:49;;;;;;;2.00;1.10;;;21.20;1.00;;;;;;5116062;28;20472;-64
2023/08/18 01:40:20;;;;;;;1.48;1.00;;;21.20;1.00;;;;;;5116420;28;20424;-65
2023/08/18 01:42:47;;;;;;;1.40;1.00;;;21.10;1.00;;;;;;5115361;28;20476;-64
2023/08/18 01:45:15;;;;;;;2.00;0.90;;;21.10;1.00;;;;;;5115987;28;20496;-63
2023/08/18 01:47:42;;;;;;;2.15;1.02;;;21.20;1.00;;;;;;5116548;28;20818;-63
2023/08/18 01:50:10;;;;;;;2.08;0.85;;;21.20;1.00;;;;;;5116384;28;20434;-63
2023/08/18 01:52:37;;;;;;;1.30;1.00;;;21.10;1.00;;;;;;5116546;28;20416;-64
2023/08/18 01:55:04;;;;;;;2.35;0.95;;;21.00;1.00;;;;;;5116063;28;20428;-64
2023/08/18 01:57:33;;;;;;;2.10;1.00;;;20.90;1.00;;;;;;5116133;28;20453;-64
2023/08/18 02:00:00;;;;;;;1.50;0.88;;;20.80;1.00;;;;;;5115350;28;20477;-63
2023/08/18 02:02:27;;;;;;;1.63;0.90;;;20.70;1.00;;;;;;5115582;28;20416;-63
2023/08/18 02:04:56;;;;;;;2.33;0.90;;;20.60;1.00;;;;;;5116234;28;20420;-64
2023/08/18 02:07:23;;;;;;;2.80;0.90;;;20.60;1.00;;;;;;5116485;28;20432;-63
2023/08/18 02:09:50;;;;;;;1.60;1.00;;;20.50;1.00;;;;;;5115590;28;20534;-64
2023/08/18 02:12:17;;;;;;;1.20;0.85;;;20.50;1.00;;;;;;5115689;28;20455;-63
2023/08/18 02:14:46;;;;;;;1.30;0.90;;;20.50;1.00;;;;;;5115366;28;20837;-64
2023/08/18 02:17:13;;;;;;;1.20;0.90;;;20.50;1.00;;;;;;5114025;28;20412;-63
2023/08/18 02:19:40;;;;;;;3.30;1.10;;;20.50;1.00;;;;;;5114727;28;20416;-63
2023/08/18 02:22:08;;;;;;;1.40;0.90;;;20.50;1.00;;;;;;5114244;28;20774;-63
2023/08/18 02:24:35;;;;;;;1.70;0.80;;;20.50;1.00;;;;;;5114513;28;20463;-62
2023/08/18 02:27:02;;;;;;;2.30;0.88;;;20.50;1.00;;;;;;5114397;28;20761;-63
2023/08/18 02:29:30;;;;;;;2.22;1.20;;;20.50;1.00;;;;;;5114418;28;20867;-62
2023/08/18 02:31:59;;;;;;;1.83;0.90;;;20.50;1.00;;;;;;5115129;28;20458;-64
2023/08/18 02:34:26;;;;;;;1.40;0.80;;;20.40;1.00;;;;;;5115771;28;20442;-62
2023/08/18 02:36:53;;;;;;;1.70;0.85;;;20.40;1.00;;;;;;5115514;28;20416;-63
2023/08/18 02:39:20;;;;;;;1.25;0.90;;;20.30;1.00;;;;;;5114609;28;20443;-64
2023/08/18 02:41:51;;;;;;;1.98;0.90;;;20.20;1.00;;;;;;5114785;28;20477;-62
2023/08/18 02:44:18;;;;;;;1.03;0.77;;;20.10;1.00;;;;;;5115037;28;20444;-62
2023/08/18 02:46:45;;;;;;;1.00;0.80;;;20.10;1.00;;;;;;5115491;28;20546;-62
2023/08/18 02:49:13;;;;;;;2.30;0.90;;;20.10;1.00;;;;;;5114144;28;20420;-63
2023/08/18 02:51:40;;;;;;;1.20;0.80;;;20.00;1.00;;;;;;5114767;28;20420;-61
2023/08/18 02:54:07;;;;;;;1.10;0.80;;;20.00;1.00;;;;;;5114605;28;20427;-61
2023/08/18 02:56:34;;;;;;;1.40;0.80;;;20.00;1.00;;;;;;5117377;28;20411;-62
2023/08/18 02:59:01;;;;;;;1.40;0.90;;;19.90;1.00;;;;;;5116797;28;20416;-63
2023/08/18 03:01:28;;;;;;;2.25;0.90;;;19.90;1.00;;;;;;5115505;28;20476;-63
2023/08/18 03:03:55;;;;;;;1.50;0.80;;;19.90;1.00;;;;;;5115291;28;20584;-63
2023/08/18 03:06:24;;;;;;;1.70;0.80;;;20.00;1.00;;;;;;5115844;28;20432;-62
2023/08/18 03:08:51;;;;;;;1.17;0.90;;;19.90;1.00;;;;;;5118672;28;20432;-61
2023/08/18 03:11:18;;;;;;;1.42;0.90;;;19.80;1.00;;;;;;5119516;28;20412;-61
2023/08/18 03:13:45;;;;;;;2.30;1.10;;;19.70;1.00;;;;;;5119486;28;20840;-62
2023/08/18 03:16:12;;;;;;;1.90;0.88;;;19.70;1.00;;;;;;5118054;28;20420;-63
2023/08/18 03:18:39;;;;;;;2.90;1.10;;;19.60;1.00;;;;;;5118149;28;20419;-62
2023/08/18 03:21:06;;;;;;;1.90;0.90;;;19.50;1.00;;;;;;5117879;28;20834;-62
2023/08/18 03:23:34;;;;;;;1.77;0.97;;;19.50;6.20;;;;;;5117653;28;20418;-62
2023/08/18 03:26:02;;;;;;;2.92;1.48;;;19.50;12.20;;;;;;5118015;28;20431;-63
2023/08/18 03:28:31;;;;;;;3.20;1.10;;;19.40;24.80;;;;;;5118489;28;20858;-62
2023/08/18 03:31:02;;;;;;;2.90;1.00;;;19.40;31.90;;;;;;5118917;28;20758;-62
2023/08/18 03:33:29;;;;;;;1.67;1.00;;;19.40;43.10;;;;;;5118292;28;20442;-64
2023/08/18 03:35:56;;;;;;;2.00;1.00;;;19.40;67.40;;;;;;5118078;28;20428;-64
2023/08/18 03:38:24;;;;;;;1.40;1.10;;;19.40;55.10;;;;;;5118293;28;20411;-62
2023/08/18 03:40:58;;;;;;;2.10;1.10;;;19.40;53.50;;;;;;5118272;28;20412;-64
2023/08/18 03:43:25;;;;;;;1.40;1.00;;;19.50;52.70;;;;;;5118250;28;20770;-63
2023/08/18 03:45:52;;;;;;;1.20;1.00;;;19.40;53.10;;;;;;5117904;28;20431;-64
2023/08/18 03:48:19;;;;;;;2.60;1.10;;;19.40;62.70;;;;;;5118089;28;20420;-67
2023/08/18 03:50:46;;;;;;;2.20;1.10;;;19.50;71.70;;;;;;5117809;28;20455;-64
2023/08/18 03:53:14;;;;;;;1.30;0.90;;;19.50;51.10;;;;;;5118492;28;20871;-62
2023/08/18 03:55:41;;;;;;;2.23;1.00;;;19.40;47.80;;;;;;5118303;28;20435;-64
2023/08/18 03:58:09;;;;;;;2.10;1.10;;;19.40;47.90;;;;;;5117410;28;20473;-62
2023/08/18 04:00:36;;;;;;;3.20;1.10;;;19.40;49.70;;;;;;5116281;28;20453;-62
2023/08/18 04:03:04;;;;;;;1.75;1.10;;;19.40;44.40;;;;;;5116635;28;20425;-62
2023/08/18 04:05:31;;;;;;;1.63;1.00;;;19.40;43.70;;;;;;5116096;28;20420;-62
2023/08/18 04:07:58;;;;;;;3.70;0.90;;;19.30;49.00;;;;;;5116068;28;20429;-63
2023/08/18 04:10:25;;;;;;;1.95;1.10;;;19.40;55.30;;;;;;5117355;28;20420;-62
2023/08/18 04:12:52;;;;;;;2.10;1.00;;;19.50;44.30;;;;;;5118274;28;20424;-63
2023/08/18 04:15:20;;;;;;;1.90;1.00;;;19.50;40.10;;;;;;5117507;28;20496;-63
2023/08/18 04:17:47;;;;;;;1.80;1.00;;;19.50;38.00;;;;;;5117863;28;20830;-63
2023/08/18 04:20:14;;;;;;;1.88;1.50;;;19.60;39.90;;;;;;5117670;28;20419;-62
2023/08/18 04:22:41;;;;;;;1.40;0.90;;;19.50;30.80;;;;;;5117821;28;20866;-63
2023/08/18 04:25:09;;;;;;;1.80;0.90;;;19.50;26.10;;;;;;5117721;28;20839;-63
2023/08/18 04:27:36;;;;;;;1.70;1.00;;;19.40;24.20;;;;;;5117226;28;20436;-63
2023/08/18 04:30:03;;;;;;;2.72;1.00;;;19.40;24.20;;;;;;5108392;28;20429;-62
2023/08/18 04:32:32;;;;;;;1.70;1.00;;;19.40;20.70;;;;;;5108940;28;20428;-62
2023/08/18 04:35:01;;;;;;;2.40;1.00;;;19.40;23.80;;;;;;5117288;28;20413;-63
2023/08/18 04:37:28;;;;;;;1.38;1.00;;;19.40;26.50;;;;;;5116402;28;20522;-63
2023/08/18 04:39:55;;;;;;;1.60;1.00;;;19.40;25.70;;;;;;5116519;28;20518;-63
2023/08/18 04:42:22;;;;;;;1.80;1.00;;;19.40;23.00;;;;;;5117060;28;20467;-62
2023/08/18 04:44:49;;;;;;;1.77;1.40;;;19.40;19.10;;;;;;5117502;28;20420;-62
2023/08/18 04:47:16;;;;;;;1.40;0.90;;;19.40;19.40;;;;;;5117002;28;20499;-62
2023/08/18 04:49:44;;;;;;;2.80;0.90;;;19.30;19.00;;;;;;5112998;28;20780;-63
2023/08/18 04:52:12;;;;;;;1.27;0.90;;;19.40;12.40;;;;;;5114210;28;20420;-63
2023/08/18 04:54:38;;;;;;;2.67;0.90;;;19.40;8.60;;;;;;5115196;28;20504;-63
2023/08/18 04:57:07;;;;;;;1.55;0.80;;;19.40;1.00;;;;;;5116145;28;20769;-63
2023/08/18 04:59:34;;;;;;;1.95;0.80;;;19.40;1.00;;;;;;5114534;28;20842;-63
2023/08/18 05:02:01;;;;;;;2.67;0.90;;;19.50;1.00;;;;;;5115894;28;20671;-63
2023/08/18 05:04:28;;;;;;;1.20;0.80;;;19.60;1.00;;;;;;5116104;28;20435;-63
2023/08/18 05:06:56;;;;;;;1.38;0.80;;;19.60;1.00;;;;;;5116263;28;20432;-62
2023/08/18 05:09:25;;;;;;;1.20;0.80;;;19.60;1.00;;;;;;5116749;28;20773;-63
2023/08/18 05:11:52;;;;;;;1.55;1.10;;;19.70;1.00;;;;;;5115943;28;20412;-63
2023/08/18 05:14:19;;;;;;;2.00;0.80;;;19.70;1.00;;;;;;5116320;28;20469;-60
2023/08/18 05:16:46;;;;;;;1.67;0.90;;;19.80;1.00;;;;;;5115358;28;20811;-64
2023/08/18 05:19:13;;;;;;;1.20;0.75;;;19.90;1.00;;;;;;5115023;28;20477;-63
2023/08/18 05:21:40;;;;;;;1.20;0.80;;;19.90;1.00;;;;;;5115479;28;20428;-63
2023/08/18 05:24:08;;;;;;;2.70;0.93;;;19.90;1.00;;;;;;5114730;28;20424;-63
2023/08/18 05:26:36;;;;;;;1.63;0.90;;;19.90;1.00;;;;;;5114231;28;20431;-63
2023/08/18 05:29:03;;;;;;;1.65;0.90;;;20.00;1.00;;;;;;5115345;28;20451;-63
2023/08/18 05:31:30;;;;;;;1.95;1.10;;;20.00;1.00;;;;;;5113535;28;20735;-63
2023/08/18 05:33:57;;;;;;;1.50;0.98;;;20.00;1.00;;;;;;5114225;28;20910;-64
2023/08/18 05:36:24;;;;;;;1.92;1.00;;;20.00;1.00;;;;;;5113950;28;20452;-64
2023/08/18 05:38:51;;;;;;;1.63;0.90;;;20.10;1.00;;;;;;5114325;28;20424;-63
2023/08/18 05:41:20;;;;;;;1.50;0.90;;;20.10;1.00;;;;;;5114482;28;20727;-63
2023/08/18 05:43:47;;;;;;;1.95;1.00;;;20.10;1.00;;;;;;5114453;28;20846;-64
2023/08/18 05:46:15;;;;;;;1.20;0.90;;;20.20;1.00;;;;;;5114484;28;20427;-64
2023/08/18 05:48:42;;;;;;;2.03;0.90;;;20.20;1.00;;;;;;5111501;28;20483;-63
2023/08/18 05:51:09;;;;;;;2.00;0.80;;;20.30;1.00;;;;;;5110410;28;20424;-64
2023/08/18 05:53:36;;;;;;;1.95;0.90;;;20.30;1.00;;;;;;5111746;28;20427;-63
2023/08/18 05:56:03;;;;;;;2.00;0.90;;;20.30;1.00;;;;;;5113907;28;20480;-63
2023/08/18 05:58:32;;;;;;;2.72;0.90;;;20.40;1.00;;;;;;5113441;28;20411;-65
2023/08/18 06:00:59;;;;;;;1.30;1.00;;;20.50;1.00;;;;;;5112424;28;20419;-64
2023/08/18 06:03:26;;;;;;;2.10;0.90;;;20.50;1.00;;;;;;5115499;28;20935;-66
2023/08/18 06:05:53;;;;;;;1.23;0.80;;;20.50;1.00;;;;;;5114797;28;20758;-64
2023/08/18 06:08:20;;;;;;;2.35;1.35;;;20.50;1.00;;;;;;5114312;28;20431;-63
2023/08/18 06:10:47;;;;;;;2.33;0.80;;;20.60;1.00;;;;;;5113121;28;20408;-64
2023/08/18 06:13:14;;;;;;;1.65;0.85;;;20.60;1.00;;;;;;5115422;28;20426;-64
2023/08/18 06:15:43;;;;;;;1.20;0.80;;;20.60;1.00;;;;;;5113030;28;20428;-64
2023/08/18 06:18:10;;;;;;;2.20;0.93;;;20.70;1.00;;;;;;5113247;28;20463;-62
2023/08/18 06:20:37;;;;;;;1.80;0.90;;;20.70;1.00;;;;;;5112734;28;20416;-61
2023/08/18 06:23:05;;;;;;;1.45;0.90;;;20.70;1.00;;;;;;5112244;28;20412;-61
2023/08/18 06:25:32;;;;;;;1.60;0.90;;;20.70;1.00;;;;;;5112740;28;20415;-62
2023/08/18 06:27:59;;;;;;;1.20;0.80;;;20.70;1.00;;;;;;5111028;28;20428;-62
2023/08/18 06:30:26;;;;;;;1.70;0.90;;;20.80;1.00;;;;;;5112834;28;20420;-62
2023/08/18 06:32:54;;;;;;;1.70;1.50;;;20.80;1.00;;;;;;5113732;28;20493;-61
2023/08/18 06:35:21;;;;;;;1.40;0.90;;;20.80;1.00;;;;;;5114197;28;20480;-62
2023/08/18 06:37:48;;;;;;;1.40;0.90;;;20.80;1.00;;;;;;5114289;28;20405;-62
2023/08/18 06:40:15;;;;;;;1.60;0.90;;;20.90;1.00;;;;;;5114510;28;20484;-62
2023/08/18 06:42:42;;;;;;;1.20;0.80;;;21.00;1.00;;;;;;5103926;28;20420;-62
2023/08/18 06:45:10;;;;;;;1.20;0.80;;;21.10;1.00;;;;;;5114878;28;20427;-62
2023/08/18 06:47:37;;;;;;;1.40;0.90;;;21.20;1.00;;;;;;5114381;28;20439;-62
2023/08/18 06:50:06;;;;;;;2.45;0.90;;;21.30;1.00;;;;;;5111669;28;20419;-62
2023/08/18 06:52:33;;;;;;;1.60;0.90;;;21.40;1.00;;;;;;5112731;28;20679;-63
2023/08/18 06:55:00;;;;;;;1.77;0.90;;;21.50;1.00;;;;;;5114770;28;20424;-63
2023/08/18 06:57:27;;;;;;;1.50;0.90;;;21.60;1.00;;;;;;5112925;28;20424;-62
2023/08/18 06:59:54;;;;;;;2.00;0.90;;;21.70;1.00;;;;;;5113548;28;20424;-62
2023/08/18 07:02:22;;;;;;;1.80;0.80;;;21.70;1.00;;;;;;5111388;28;20423;-62
2023/08/18 07:04:50;;;;;;;1.70;0.80;;;21.80;1.00;;;;;;5117601;27;20869;-62
2023/08/18 07:07:18;;;;;;;1.30;0.90;;;21.90;99.90;;;;;;5117690;28;20459;-62
2023/08/18 07:09:45;;;;;;;2.00;0.80;;;21.90;99.90;;;;;;5111627;28;20513;-62
2023/08/18 07:12:12;;;;;;;1.07;0.70;;;22.10;99.90;;;;;;5113159;28;20420;-63
2023/08/18 07:14:39;;;;;;;1.67;0.80;;;22.30;99.90;;;;;;5112405;28;20427;-62
2023/08/18 07:17:06;;;;;;;1.23;0.90;;;22.40;14.50;;;;;;5113656;28;20416;-62
2023/08/18 07:19:33;;;;;;;1.50;0.70;;;22.40;1.00;;;;;;5115224;28;20406;-62
2023/08/18 07:22:00;;;;;;;2.50;0.88;;;22.50;1.00;;;;;;5133653;28;20422;-63
2023/08/18 07:24:29;;;;;;;1.40;0.70;;;22.60;1.00;;;;;;5132274;28;20430;-62
2023/08/18 07:26:56;;;;;;;1.42;0.80;;;22.70;1.00;;;;;;5130621;28;20426;-62
2023/08/18 07:29:24;;;;;;;1.08;0.70;;;22.80;99.90;;;;;;5132372;28;20430;-62
2023/08/18 07:31:51;;;;;;;2.33;0.73;;;22.90;1.00;;;;;;5134449;28;20418;-62
2023/08/18 07:34:18;;;;;;;1.15;0.70;;;23.00;99.90;;;;;;5133260;28;20756;-62
2023/08/18 07:36:45;;;;;;;2.00;0.70;;;23.10;1.00;;;;;;5133689;28;20419;-63
2023/08/18 07:39:12;;;;;;;1.90;0.70;;;23.20;1.00;;;;;;5131392;28;20421;-62
2023/08/18 07:41:41;;;;;;;0.90;0.70;;;23.40;99.90;;;;;;5132595;27;20422;-63
2023/08/18 07:44:08;;;;;;;0.95;0.60;;;23.40;1.00;;;;;;5136459;27;20517;-62
2023/08/18 07:46:36;;;;;;;1.50;0.80;;;23.50;1.00;;;;;;5128051;27;20402;-62
2023/08/18 07:49:03;;;;;;;1.40;0.70;;;23.50;7.30;;;;;;5136197;27;20433;-63
2023/08/18 07:51:30;;;;;;;0.90;0.63;;;23.50;1.00;;;;;;5136022;27;20422;-62
2023/08/18 07:53:57;;;;;;;1.83;0.60;;;23.50;1.00;;;;;;5137272;27;20422;-62
2023/08/18 07:56:25;;;;;;;2.10;0.70;;;23.60;1.00;;;;;;5137684;27;20490;-62
2023/08/18 07:58:53;;;;;;;1.60;0.70;;;23.70;99.90;;;;;;5137328;27;20406;-62
2023/08/18 08:01:20;;;;;;;1.20;0.60;;;23.60;99.90;;;;;;5138383;27;20776;-62
2023/08/18 08:03:47;;;;;;;1.50;0.60;;;23.70;99.90;;;;;;5135081;27;20418;-62
2023/08/18 08:06:14;;;;;;;1.20;0.63;;;23.70;46.30;;;;;;5135112;27;20428;-62
2023/08/18 08:08:41;;;;;;;1.10;0.60;;;23.80;1.00;;;;;;5134304;27;20711;-62
2023/08/18 08:11:09;;;;;;;1.20;0.60;;;23.90;1.00;;;;;;5132850;27;20450;-63
2023/08/18 08:13:36;;;;;;;1.10;0.50;;;23.90;1.00;;;;;;5121230;27;20583;-63
2023/08/18 08:16:05;;;;;;;1.92;0.60;;;23.90;1.00;;;;;;5126477;27;20739;-63
2023/08/18 08:18:33;;;;;;;0.77;0.50;;;24.00;1.00;;;;;;5125698;27;21147;-62
2023/08/18 08:21:01;;;;;;;1.30;0.50;;;24.10;99.90;;;;;;5115149;28;20719;-63
2023/08/18 08:23:28;;;;;;;1.20;0.60;;;24.30;99.90;;;;;;5120616;27;20813;-62
2023/08/18 08:25:55;;;;;;;0.80;0.50;;;24.40;99.90;;;;;;5114944;27;21004;-62
2023/08/18 08:28:22;;;;;;;1.10;0.60;;;24.40;99.90;;;;;;5136271;27;20837;-62
2023/08/18 08:30:49;;;;;;;0.80;0.50;;;24.60;99.90;;;;;;5137030;27;20426;-63
2023/08/18 08:33:18;;;;;;;0.80;0.50;;;24.80;99.90;;;;;;5135230;27;20418;-62
2023/08/18 08:35:45;;;;;;;1.10;0.50;;;24.90;99.90;;;;;;5134939;27;20422;-60
2023/08/18 08:38:12;;;;;;;0.80;0.50;;;24.90;99.90;;;;;;5134691;27;20418;-60
2023/08/18 08:40:42;;;;;;;1.10;0.60;;;25.00;99.90;;;;;;5135176;27;20406;-61
2023/08/18 08:43:09;;;;;;;1.23;0.50;;;25.00;99.90;;;;;;5133792;27;20430;-61
2023/08/18 08:45:38;;;;;;;0.80;0.50;;;25.10;99.90;;;;;;5135265;27;20428;-61
2023/08/18 08:48:07;;;;;;;0.90;0.50;;;25.30;99.90;;;;;;5135141;27;20430;-61
2023/08/18 08:50:41;;;;;;;1.20;0.50;;;25.40;85.20;;;;;;5134570;27;20465;-60
2023/08/18 08:53:12;;;;;;;0.80;0.50;;;25.60;55.00;;;;;;5135586;27;20805;-59
2023/08/18 08:55:39;;;;;;;0.97;0.50;;;25.70;41.50;;;;;;5136860;27;20792;-60
2023/08/18 08:58:07;;;;;;;0.80;0.60;;;25.70;39.20;;;;;;5126967;27;20899;-60
2023/08/18 09:00:34;;;;;;;1.70;0.50;;;25.70;37.80;;;;;;5135489;27;21110;-61
2023/08/18 09:03:02;;;;;;;0.70;0.45;;;25.70;35.90;;;;;;5135496;27;20420;-60
2023/08/18 09:05:31;;;;;;;0.80;0.50;;;25.90;45.10;;;;;;5135603;27;20479;-60
2023/08/18 09:08:00;;;;;;;1.10;0.50;;;26.00;37.50;;;;;;5136508;27;20426;-60
2023/08/18 09:10:27;;;;;;;0.82;0.40;;;26.20;53.30;;;;;;5135464;27;20434;-61
2023/08/18 09:12:55;;;;;;;1.33;0.50;;;26.30;29.40;;;;;;5135438;27;20907;-60
2023/08/18 09:15:23;;;;;;;1.00;0.40;;;26.40;23.60;;;;;;5134641;27;20988;-59
2023/08/18 09:17:51;;;;;;;1.20;0.53;;;26.50;28.00;;;;;;5135548;27;20468;-62
2023/08/18 09:20:18;;;;;;;2.20;0.40;;;26.70;1.00;;;;;;5136417;27;20411;-61
2023/08/18 09:22:45;;;;;;;0.90;0.50;;;26.90;1.00;;;;;;5136114;27;20457;-59
2023/08/18 09:25:14;;;;;;;0.90;0.60;;;26.90;1.00;;;;;;5135156;27;20834;-58
2023/08/18 09:27:41;;;;;;;0.80;0.40;;;26.90;1.00;;;;;;5135167;27;20423;-58
2023/08/18 09:30:09;;;;;;;0.82;0.50;;;26.80;1.00;;;;;;5134122;27;20431;-58
2023/08/18 09:32:36;;;;;;;0.70;0.50;;;26.80;1.00;;;;;;5135722;27;20475;-59
2023/08/18 09:35:04;;;;;;;1.50;0.40;;;27.00;1.00;;;;;;5134866;27;20411;-57
2023/08/18 09:37:31;;;;;;;0.70;0.40;;;27.00;1.00;;;;;;5132661;27;20411;-59
2023/08/18 09:39:59;;;;;;;1.45;0.50;;;27.00;1.00;;;;;;5133504;27;20795;-59
2023/08/18 09:42:27;;;;;;;0.70;0.50;;;27.10;1.00;;;;;;5132925;27;20454;-58
2023/08/18 09:44:54;;;;;;;0.70;0.43;;;27.10;1.00;;;;;;5132666;27;20658;-58
2023/08/18 09:47:23;;;;;;;2.13;0.50;;;27.20;1.00;;;;;;5132872;27;20414;-59
2023/08/18 09:49:52;;;;;;;0.90;0.60;;;27.20;1.00;;;;;;5131409;27;20452;-59
2023/08/18 09:52:28;;;;;;;1.07;0.50;;;27.30;1.00;;;;;;5129097;27;20463;-58
2023/08/18 09:55:00;;;;;;;0.90;0.60;;;27.30;1.00;;;;;;5123879;27;20533;-58
2023/08/18 09:57:35;;;;;;;0.70;0.45;;;27.40;1.00;;;;;;5126006;27;20434;-59
2023/08/18 10:00:04;;;;;;;0.90;0.60;;;27.70;1.00;;;;;;5118571;27;20424;-59
2023/08/18 10:02:36;;;;;;;0.90;0.40;;;27.90;1.00;;;;;;5111370;28;20716;-58
2023/08/18 10:05:04;;;;;;;0.77;0.40;;;28.20;1.00;;;;;;5113117;28;20412;-58
2023/08/18 10:07:33;;;;;;;0.88;0.50;;;28.30;1.00;;;;;;5114013;27;20408;-58
2023/08/18 10:10:01;;;;;;;0.80;0.40;;;28.40;1.00;;;;;;5116215;27;20710;-58
2023/08/18 10:12:29;;;;;;;0.93;0.40;;;28.70;1.00;;;;;;5145208;27;20416;-58
2023/08/18 10:14:57;;;;;;;1.30;0.40;;;28.90;1.00;;;;;;5132659;27;20436;-58
2023/08/18 10:17:25;;;;;;;0.83;0.40;;;29.10;1.00;;;;;;5131084;27;20426;-58
2023/08/18 10:19:54;;;;;;;1.08;0.50;;;29.40;1.00;;;;;;5133642;27;20403;-59
2023/08/18 10:22:24;;;;;;;0.80;0.40;;;29.50;1.00;;;;;;5133635;27;20422;-59
2023/08/18 10:24:52;;;;;;;0.70;0.45;;;29.60;1.00;;;;;;5132929;27;20834;-59
2023/08/18 10:27:36;;;;;;;1.00;0.50;;;29.80;1.00;;;;;;5133618;27;20469;-59
2023/08/18 10:30:24;;;;;;;0.95;0.50;;;30.00;1.00;;;;;;5125603;27;20443;-61
2023/08/18 10:32:52;;;;;;;0.70;0.40;;;29.90;1.00;;;;;;5125280;27;20783;-59
2023/08/18 10:35:20;;;;;;;0.60;0.40;;;30.10;1.00;;;;;;5134797;27;20410;-59
2023/08/18 10:37:50;;;;;;;1.80;0.40;;;30.30;1.00;;;;;;5132729;27;20538;-59
2023/08/18 10:40:24;;;;;;;0.55;0.40;;;30.40;1.00;;;;;;5133296;27;20546;-59
2023/08/18 10:42:58;;;;;;;0.60;0.40;;;30.40;1.00;;;;;;5133146;27;20511;-59
2023/08/18 10:45:26;;;;;;;0.70;0.40;;;30.50;1.00;;;;;;5134466;27;20422;-59
2023/08/18 10:47:54;;;;;;;1.20;0.40;;;30.20;1.00;;;;;;5132820;28;20426;-59
2023/08/18 10:50:21;;;;;;;1.10;0.40;;;30.50;1.00;;;;;;5133030;28;20418;-59
2023/08/18 10:52:52;;;;;;;0.70;0.40;;;30.70;1.00;;;;;;5129409;27;20430;-59
2023/08/18 10:55:19;;;;;;;1.10;0.50;;;31.20;1.00;;;;;;5133982;28;20522;-59
2023/08/18 10:57:47;;;;;;;0.90;0.40;;;31.30;1.00;;;;;;5131889;27;20434;-59
2023/08/18 11:00:17;;;;;;;0.60;0.40;;;31.50;1.00;;;;;;5133067;28;20513;-59
2023/08/18 11:02:45;;;;;;;0.60;0.40;;;31.80;1.00;;;;;;5116825;27;20440;-59
2023/08/18 11:05:12;;;;;;;1.08;0.40;;;31.90;1.00;;;;;;5123489;27;20793;-59
2023/08/18 11:07:39;;;;;;;0.90;0.40;;;31.90;1.00;;;;;;5133698;27;20434;-59
2023/08/18 11:10:20;;;;;;;0.60;0.40;;;31.90;1.00;;;;;;5131100;28;20426;-59
2023/08/18 11:12:48;;;;;;;0.60;0.40;;;31.80;1.00;;;;;;5134645;28;20434;-59
2023/08/18 11:15:20;;;;;;;1.30;0.43;;;32.30;1.00;;;;;;5134794;27;20519;-59
2023/08/18 11:17:47;;;;;;;2.50;0.70;;;32.80;1.00;;;;;;5134961;27;20836;-56
2023/08/18 11:20:15;;;;;;;0.63;0.45;;;33.10;1.00;;;;;;5137391;27;20410;-57
2023/08/18 11:22:43;;;;;;;0.60;0.40;;;33.20;1.00;;;;;;5134894;27;20430;-57
2023/08/18 11:25:12;;;;;;;0.68;0.40;;;33.00;1.00;;;;;;5137946;27;20733;-58
2023/08/18 11:27:41;;;;;;;0.70;0.50;;;33.20;1.00;;;;;;5119293;27;20501;-58
2023/08/18 11:30:10;;;;;;;0.60;0.40;;;33.30;1.00;;;;;;5117482;28;20479;-58
2023/08/18 11:32:39;;;;;;;0.90;0.40;;;33.50;1.00;;;;;;5118104;28;20431;-58
2023/08/18 11:35:08;;;;;;;0.60;0.40;;;33.40;1.00;;;;;;5118666;28;20650;-57
2023/08/18 11:37:40;;;;;;;0.77;0.30;;;33.40;1.00;;;;;;5118364;28;20454;-58
2023/08/18 11:40:10;;;;;;;0.90;0.30;;;33.60;1.00;;;;;;5117226;28;20448;-58
2023/08/18 11:42:39;;;;;;;0.80;0.40;;;33.80;1.00;;;;;;5116563;28;20460;-57
2023/08/18 11:45:09;;;;;;;2.40;0.40;;;33.70;1.00;;;;;;5117111;28;20455;-57
2023/08/18 11:47:37;;;;;;;0.80;0.40;;;33.80;1.00;;;;;;5117424;28;20835;-58
2023/08/18 11:50:05;;;;;;;0.90;0.40;;;33.90;1.00;;;;;;5116263;28;20432;-58
2023/08/18 11:52:42;;;;;;;0.53;0.30;;;33.80;1.00;;;;;;5115378;28;20416;-58
2023/08/18 11:55:10;;;;;;;0.70;0.40;;;33.70;1.00;;;;;;5116980;28;20424;-58
2023/08/18 11:57:40;;;;;;;0.95;0.40;;;33.60;1.00;;;;;;5116604;28;20769;-58
2023/08/18 12:00:13;;;;;;;0.80;0.40;;;33.40;1.00;;;;;;5116947;28;20412;-58
2023/08/18 12:02:46;;;;;;;1.55;0.50;;;33.60;1.00;;;;;;5116953;28;20711;-58
2023/08/18 12:05:21;;;;;;;0.70;0.40;;;33.90;1.00;;;;;;5115994;28;20511;-58
2023/08/18 12:07:49;;;;;;;1.13;0.40;;;34.10;1.00;;;;;;5114447;28;20468;-58
2023/08/18 12:10:16;;;;;;;0.70;0.50;;;34.20;1.00;;;;;;5116549;28;20451;-57
2023/08/18 12:12:43;;;;;;;0.80;0.40;;;34.10;1.00;;;;;;5116456;28;20727;-58
2023/08/18 12:15:11;;;;;;;1.60;0.50;;;33.80;1.00;;;;;;5115996;28;20420;-57
2023/08/18 12:17:38;;;;;;;0.70;0.40;;;33.60;1.00;;;;;;5114762;28;20431;-59
2023/08/18 12:20:08;;;;;;;1.30;0.50;;;33.60;1.00;;;;;;5115962;28;20715;-59
2023/08/18 12:22:34;;;;;;;0.63;0.40;;;33.80;1.00;;;;;;5114168;28;20497;-59
2023/08/18 12:25:03;;;;;;;0.75;0.35;;;34.00;1.00;;;;;;5116030;28;20719;-60
2023/08/18 12:27:30;;;;;;;0.70;0.40;;;34.30;1.00;;;;;;5106275;28;20432;-57
2023/08/18 12:29:57;;;;;;;1.30;0.40;;;34.60;1.00;;;;;;5114316;28;20432;-57
2023/08/18 12:32:25;;;;;;;0.60;0.40;;;34.50;1.00;;;;;;5113429;28;20719;-57
2023/08/18 12:34:52;;;;;;;1.10;0.40;;;34.40;1.00;;;;;;5111521;28;20412;-57
2023/08/18 12:37:21;;;;;;;1.10;0.40;;;34.10;1.00;;;;;;5111886;28;20419;-59
2023/08/18 12:39:48;;;;;;;0.90;0.40;;;34.10;1.00;;;;;;5114140;28;20420;-60
2023/08/18 12:42:16;;;;;;;0.90;0.40;;;33.90;1.00;;;;;;5113549;28;20939;-58
2023/08/18 12:44:43;;;;;;;1.20;0.50;;;33.70;1.00;;;;;;5113434;28;20427;-59
2023/08/18 12:47:10;;;;;;;1.80;0.50;;;33.80;1.00;;;;;;5114209;28;20412;-60
2023/08/18 12:49:37;;;;;;;1.00;0.40;;;33.90;1.00;;;;;;5114243;28;20874;-57
2023/08/18 12:52:04;;;;;;;0.60;0.40;;;33.80;1.00;;;;;;5115964;28;20503;-57
2023/08/18 12:54:33;;;;;;;0.80;0.40;;;34.30;1.00;;;;;;5115644;28;20420;-57
2023/08/18 12:57:00;;;;;;;0.90;0.40;;;34.50;1.00;;;;;;5114919;28;20416;-57
2023/08/18 12:59:27;;;;;;;0.82;0.40;;;34.70;1.00;;;;;;5113626;28;20422;-57